createdAt,value
2018-09-14T00:00:14.635Z,3.70
2018-09-14T00:02:44.958Z,4.10
2018-09-14T00:05:27.316Z,3.90
2018-09-14T00:07:56.419Z,3.73
2018-09-14T00:10:25.581Z,3.97
2018-09-14T00:12:55.250Z,4.53
2018-09-14T00:15:25.012Z,3.73
2018-09-14T00:17:59.323Z,3.80
2018-09-14T00:20:29.197Z,3.77
2018-09-14T00:22:58.238Z,3.90
2018-09-14T00:25:27.369Z,3.90
2018-09-14T00:27:57.834Z,5.10
2018-09-14T00:30:30.398Z,5.07
2018-09-14T00:33:11.930Z,4.10
2018-09-14T00:35:41.114Z,4.50
2018-09-14T00:38:10.362Z,4.70
2018-09-14T00:40:49.996Z,4.07
2018-09-14T00:43:21.314Z,4.10
2018-09-14T00:45:50.683Z,3.63
2018-09-14T00:48:21.433Z,3.80
2018-09-14T00:50:51.289Z,3.90
2018-09-14T00:53:20.585Z,4.03
2018-09-14T00:55:49.814Z,3.90
2018-09-14T00:58:29.508Z,3.30
2018-09-14T01:00:58.703Z,3.80
2018-09-14T01:03:28.247Z,4.00
2018-09-14T01:06:08.839Z,3.80
2018-09-14T01:08:41.302Z,3.83
2018-09-14T01:11:20.836Z,3.63
2018-09-14T01:13:50.852Z,3.40
2018-09-14T01:16:21.816Z,3.93
2018-09-14T01:18:51.316Z,3.83
2018-09-14T01:21:25.446Z,3.70
2018-09-14T01:23:56.147Z,4.00
2018-09-14T01:26:25.611Z,3.90
2018-09-14T01:28:54.835Z,3.43
2018-09-14T01:31:24.935Z,2.90
2018-09-14T01:34:00.129Z,2.53
2018-09-14T01:36:36.518Z,3.53
2018-09-14T01:39:27.459Z,3.00
2018-09-14T01:41:57.559Z,3.50
2018-09-14T01:44:38.031Z,5.37
2018-09-14T01:47:09.924Z,4.03
2018-09-14T01:49:39.724Z,4.07
2018-09-14T01:52:09.515Z,3.47
2018-09-14T01:54:48.462Z,4.70
2018-09-14T01:57:21.858Z,3.73
2018-09-14T01:59:52.117Z,3.60
2018-09-14T02:02:23.033Z,4.53
2018-09-14T02:04:54.726Z,3.73
2018-09-14T02:07:24.798Z,4.00
2018-09-14T02:09:56.312Z,3.83
2018-09-14T02:12:25.509Z,3.27
2018-09-14T02:14:54.939Z,3.30
2018-09-14T02:17:26.027Z,2.93
2018-09-14T02:19:56.147Z,4.10
2018-09-14T02:22:25.398Z,3.23
2018-09-14T02:24:56.468Z,3.63
2018-09-14T02:27:25.855Z,4.20
2018-09-14T02:29:55.120Z,3.70
2018-09-14T02:32:25.284Z,3.40
2018-09-14T02:34:54.517Z,3.90
2018-09-14T02:37:35.350Z,3.10
2018-09-14T02:40:17.234Z,3.57
2018-09-14T02:42:47.494Z,3.10
2018-09-14T02:45:16.725Z,3.43
2018-09-14T02:47:45.862Z,3.10
2018-09-14T02:50:14.889Z,3.20
2018-09-14T02:52:44.706Z,3.60
2018-09-14T02:55:14.042Z,2.33
2018-09-14T02:57:45.249Z,3.50
2018-09-14T03:00:14.476Z,3.27
2018-09-14T03:02:54.335Z,3.03
2018-09-14T03:05:23.696Z,3.07
2018-09-14T03:07:54.069Z,3.20
2018-09-14T03:10:23.114Z,3.07
2018-09-14T03:12:52.558Z,2.97
2018-09-14T03:15:21.596Z,2.57
2018-09-14T03:17:50.882Z,2.87
2018-09-14T03:20:21.312Z,3.10
2018-09-14T03:22:52.238Z,3.20
2018-09-14T03:25:21.522Z,3.40
2018-09-14T03:27:55.356Z,3.13
2018-09-14T03:30:25.913Z,3.10
2018-09-14T03:32:59.107Z,3.07
2018-09-14T03:35:31.164Z,2.93
2018-09-14T03:38:00.317Z,3.10
2018-09-14T03:40:30.362Z,3.27
2018-09-14T03:43:05.650Z,3.03
2018-09-14T03:45:34.989Z,3.33
2018-09-14T03:48:10.982Z,3.43
2018-09-14T03:50:46.075Z,3.60
2018-09-14T03:53:15.071Z,3.33
2018-09-14T03:55:44.251Z,3.20
2018-09-14T03:58:13.307Z,3.10
2018-09-14T04:00:42.503Z,3.73
2018-09-14T04:03:16.960Z,3.03
2018-09-14T04:05:47.015Z,3.33
2018-09-14T04:08:22.668Z,3.20
2018-09-14T04:10:53.273Z,3.20
2018-09-14T04:13:22.497Z,3.97
2018-09-14T04:15:56.786Z,3.40
2018-09-14T04:18:25.896Z,3.90
2018-09-14T04:20:55.195Z,3.60
2018-09-14T04:23:25.047Z,4.40
2018-09-14T04:25:55.503Z,3.80
2018-09-14T04:28:29.628Z,4.10
2018-09-14T04:30:59.850Z,4.07
2018-09-14T04:33:39.297Z,3.53
2018-09-14T04:36:08.494Z,3.80
2018-09-14T04:38:37.652Z,3.33
2018-09-14T04:41:08.681Z,3.60
2018-09-14T04:43:57.078Z,4.47
2018-09-14T04:46:26.289Z,4.40
2018-09-14T04:49:05.279Z,4.90
2018-09-14T04:51:34.595Z,3.80
2018-09-14T04:54:03.604Z,4.27
2018-09-14T04:57:03.213Z,4.07
2018-09-14T04:59:34.923Z,4.57
2018-09-14T05:02:20.108Z,5.40
2018-09-14T05:04:54.211Z,4.47
2018-09-14T05:07:25.900Z,5.43
2018-09-14T05:13:05.233Z,6.13
2018-09-14T05:15:34.585Z,6.67
2018-09-14T05:18:05.498Z,7.37
2018-09-14T05:20:34.730Z,5.63
2018-09-14T05:23:04.152Z,5.70
2018-09-14T05:25:35.691Z,9.30
2018-09-14T05:28:05.287Z,5.20
2018-09-14T05:30:34.662Z,5.57
2018-09-14T05:33:03.977Z,5.20
2018-09-14T05:35:36.039Z,4.20
2018-09-14T05:38:09.262Z,4.93
2018-09-14T05:40:38.393Z,4.47
2018-09-14T05:43:08.550Z,4.97
2018-09-14T05:45:49.628Z,4.70
2018-09-14T05:48:33.896Z,4.17
2018-09-14T05:51:09.473Z,5.40
2018-09-14T05:53:43.000Z,4.87
2018-09-14T05:56:12.449Z,4.80
2018-09-14T05:58:41.789Z,5.23
2018-09-14T06:01:20.969Z,5.07
2018-09-14T06:03:50.053Z,5.20
2018-09-14T06:06:30.515Z,5.00
2018-09-14T06:09:01.254Z,4.60
2018-09-14T06:11:31.495Z,4.40
2018-09-14T06:14:25.477Z,5.10
2018-09-14T06:17:01.495Z,4.90
2018-09-14T06:19:39.453Z,5.67
2018-09-14T06:22:09.625Z,5.43
2018-09-14T06:24:40.056Z,5.43
2018-09-14T06:27:09.566Z,6.17
2018-09-14T06:29:39.647Z,5.17
2018-09-14T06:32:08.929Z,5.90
2018-09-14T06:34:40.780Z,6.03
2018-09-14T06:37:22.647Z,5.10
2018-09-14T06:39:56.453Z,6.13
2018-09-14T06:42:25.836Z,6.20
2018-09-14T06:44:59.930Z,5.97
2018-09-14T06:47:29.579Z,6.23
2018-09-14T06:50:00.105Z,5.90
2018-09-14T06:52:49.624Z,6.00
2018-09-14T06:55:18.933Z,5.50
2018-09-14T06:57:54.433Z,5.30
2018-09-14T07:00:24.512Z,5.80
2018-09-14T07:02:54.731Z,6.40
2018-09-14T07:05:24.002Z,5.80
2018-09-14T07:07:54.054Z,5.33
2018-09-14T07:10:23.236Z,4.33
2018-09-14T07:12:52.345Z,6.00
2018-09-14T07:15:24.291Z,7.13
2018-09-14T07:17:53.729Z,7.10
2018-09-14T07:20:22.806Z,5.67
2018-09-14T07:22:52.201Z,5.53
2018-09-14T07:25:22.234Z,5.20
2018-09-14T07:27:51.302Z,4.00
2018-09-14T07:30:20.751Z,4.73
2018-09-14T07:32:50.531Z,2.93
2018-09-14T07:35:21.166Z,3.20
2018-09-14T07:37:51.238Z,3.60
2018-09-14T07:40:20.696Z,3.70
2018-09-14T07:42:50.791Z,3.57
2018-09-14T07:45:21.514Z,4.67
2018-09-14T07:47:51.043Z,3.63
2018-09-14T07:50:20.821Z,3.60
2018-09-14T07:55:28.922Z,3.87
2018-09-14T07:58:05.121Z,3.30
2018-09-14T08:00:34.246Z,3.50
2018-09-14T08:03:04.715Z,5.13
2018-09-14T08:05:35.831Z,4.33
2018-09-14T08:08:06.066Z,3.97
2018-09-14T08:10:36.941Z,4.40
2018-09-14T08:13:07.987Z,5.80
2018-09-14T08:15:37.162Z,5.10
2018-09-14T08:18:10.622Z,6.50
2018-09-14T08:20:44.487Z,7.90
2018-09-14T08:23:13.627Z,9.70
2018-09-14T08:25:43.835Z,9.03
2018-09-14T08:28:13.718Z,8.10
2018-09-14T08:30:43.820Z,9.80
2018-09-14T08:33:13.313Z,10.30
2018-09-14T08:35:47.486Z,8.33
2018-09-14T08:38:17.822Z,10.90
2018-09-14T08:40:47.002Z,12.93
2018-09-14T08:43:17.656Z,12.27
2018-09-14T08:45:48.119Z,11.80
2018-09-14T08:48:23.289Z,10.93
2018-09-14T08:50:52.630Z,13.10
2018-09-14T08:53:23.087Z,12.77
2018-09-14T08:55:53.302Z,13.40
2018-09-14T08:58:23.207Z,10.37
2018-09-14T09:00:52.385Z,10.87
2018-09-14T09:03:22.278Z,11.20
2018-09-14T09:05:51.484Z,10.70
2018-09-14T09:08:21.184Z,9.83
2018-09-14T09:10:51.049Z,6.80
2018-09-14T09:13:20.282Z,7.50
2018-09-14T09:15:49.637Z,4.57
2018-09-14T09:18:19.861Z,5.23
2018-09-14T09:20:49.955Z,5.00
2018-09-14T09:23:19.286Z,4.60
2018-09-14T09:25:49.841Z,4.53
2018-09-14T09:28:19.402Z,4.60
2018-09-14T09:30:49.078Z,4.43
2018-09-14T09:33:18.668Z,4.33
2018-09-14T09:35:48.220Z,3.00
2018-09-14T09:38:18.683Z,2.53
2018-09-14T09:40:48.100Z,2.27
2018-09-14T09:43:17.493Z,2.70
2018-09-14T09:45:47.880Z,2.40
2018-09-14T09:48:21.956Z,2.20
2018-09-14T09:50:51.672Z,2.60
2018-09-14T09:53:20.763Z,2.23
2018-09-14T09:55:50.335Z,1.90
2018-09-14T09:58:24.494Z,1.60
2018-09-14T10:00:58.960Z,2.13
2018-09-14T10:03:33.484Z,1.73
2018-09-14T10:06:08.078Z,1.80
2018-09-14T10:08:37.327Z,1.80
2018-09-14T10:11:06.666Z,1.80
2018-09-14T10:13:35.957Z,1.67
2018-09-14T10:16:05.250Z,2.00
2018-09-14T10:18:34.511Z,1.60
2018-09-14T10:21:05.051Z,1.80
2018-09-14T10:23:34.262Z,2.47
2018-09-14T10:26:04.420Z,1.70
2018-09-14T10:28:33.609Z,1.60
2018-09-14T10:31:03.020Z,1.70
2018-09-14T10:33:33.202Z,2.20
2018-09-14T10:36:04.198Z,2.37
2018-09-14T10:38:35.587Z,2.03
2018-09-14T10:41:04.786Z,2.00
2018-09-14T10:43:33.898Z,2.27
2018-09-14T10:46:03.585Z,2.20
2018-09-14T10:48:32.897Z,1.97
2018-09-14T10:51:02.257Z,2.37
2018-09-14T10:53:31.772Z,2.53
2018-09-14T10:56:00.922Z,2.37
2018-09-14T10:58:35.534Z,2.30
2018-09-14T11:01:04.876Z,3.10
2018-09-14T11:03:34.223Z,1.90
2018-09-14T11:06:03.737Z,2.27
2018-09-14T11:08:32.913Z,2.30
2018-09-14T11:11:04.631Z,2.80
2018-09-14T11:13:34.619Z,2.37
2018-09-14T11:16:03.889Z,2.20
2018-09-14T11:18:33.778Z,2.33
2018-09-14T11:21:03.183Z,2.20
2018-09-14T11:23:33.185Z,2.50
2018-09-14T11:26:02.296Z,2.47
2018-09-14T11:28:32.453Z,2.33
2018-09-14T11:31:01.632Z,2.40
2018-09-14T11:33:30.750Z,3.17
2018-09-14T11:36:00.304Z,2.50
2018-09-14T11:38:32.054Z,2.73
2018-09-14T11:41:07.296Z,2.60
2018-09-14T11:43:37.191Z,2.50
2018-09-14T11:46:06.618Z,3.00
2018-09-14T11:48:36.939Z,2.30
2018-09-14T11:51:06.526Z,2.53
2018-09-14T11:53:35.861Z,2.30
2018-09-14T11:56:05.040Z,2.20
2018-09-14T11:58:34.137Z,2.50
2018-09-14T12:01:03.512Z,2.50
2018-09-14T12:03:32.793Z,2.50
2018-09-14T12:06:02.821Z,2.20
2018-09-14T12:08:32.629Z,2.40
2018-09-14T12:11:02.272Z,2.57
2018-09-14T12:13:33.748Z,2.70
2018-09-14T12:16:04.476Z,2.00
2018-09-14T12:18:33.858Z,2.37
2018-09-14T12:21:03.592Z,2.47
2018-09-14T12:23:32.840Z,2.20
2018-09-14T12:26:02.304Z,1.83
2018-09-14T12:28:32.241Z,2.73
2018-09-14T12:31:02.458Z,2.70
2018-09-14T12:33:32.791Z,2.23
2018-09-14T12:36:02.116Z,2.50
2018-09-14T12:38:32.342Z,2.10
2018-09-14T12:41:02.023Z,2.50
2018-09-14T12:43:31.358Z,2.40
2018-09-14T12:46:00.833Z,2.43
2018-09-14T12:48:31.016Z,2.40
2018-09-14T12:51:01.603Z,2.47
2018-09-14T12:53:31.083Z,2.30
2018-09-14T12:56:01.691Z,2.60
2018-09-14T12:58:31.204Z,2.80
2018-09-14T13:01:00.462Z,2.80
2018-09-14T13:03:29.809Z,2.80
2018-09-14T13:05:58.934Z,2.80
2018-09-14T13:08:28.150Z,2.23
2018-09-14T13:13:39.130Z,3.07
2018-09-14T13:16:08.500Z,2.20
2018-09-14T13:18:38.936Z,2.73
2018-09-14T13:21:08.214Z,2.47
2018-09-14T13:23:37.468Z,2.40
2018-09-14T13:26:06.831Z,2.00
2018-09-14T13:28:36.361Z,2.60
2018-09-14T13:31:05.434Z,3.00
2018-09-14T13:33:34.498Z,2.77
2018-09-14T13:36:03.843Z,2.27
2018-09-14T13:38:33.295Z,2.37
2018-09-14T13:41:02.505Z,3.20
2018-09-14T13:43:31.905Z,2.37
2018-09-14T13:46:01.055Z,3.20
2018-09-14T13:48:30.038Z,2.67
2018-09-14T13:50:59.223Z,4.30
2018-09-14T13:53:31.029Z,3.13
2018-09-14T13:56:00.365Z,3.17
2018-09-14T13:58:29.956Z,3.20
2018-09-14T14:02:20.122Z,3.57
2018-09-14T14:04:51.708Z,3.53
2018-09-14T14:07:22.363Z,3.17
2018-09-14T14:09:52.667Z,4.33
2018-09-14T14:12:22.781Z,3.13
2018-09-14T14:14:52.150Z,3.30
2018-09-14T15:10:32.151Z,3.40
2018-09-14T15:13:01.641Z,3.50
2018-09-14T15:15:35.940Z,3.77
2018-09-14T15:18:05.241Z,3.90
2018-09-14T15:20:35.958Z,4.07
2018-09-14T15:23:05.888Z,4.73
2018-09-14T15:25:35.069Z,4.00
2018-09-14T15:28:06.087Z,4.90
2018-09-14T15:30:35.544Z,3.70
2018-09-14T15:33:05.914Z,3.60
2018-09-14T15:35:35.837Z,4.00
2018-09-14T15:38:09.070Z,4.60
2018-09-14T15:40:39.474Z,4.00
2018-09-14T15:43:10.333Z,4.47
2018-09-14T15:45:40.480Z,5.00
2018-09-14T15:48:09.661Z,4.60
2018-09-14T15:50:38.922Z,5.10
2018-09-14T15:53:08.385Z,4.90
2018-09-14T15:55:37.982Z,4.53
2018-09-14T15:58:07.320Z,4.50
2018-09-14T16:00:38.585Z,4.27
2018-09-14T16:03:08.144Z,5.33
2018-09-14T16:05:37.238Z,5.50
2018-09-14T16:08:06.528Z,4.57
2018-09-14T16:10:39.443Z,4.50
2018-09-14T16:13:26.645Z,4.90
2018-09-14T16:16:20.576Z,4.50
2018-09-14T16:18:57.262Z,4.93
2018-09-14T16:21:41.436Z,5.00
2018-09-14T16:24:11.468Z,4.20
2018-09-14T16:26:41.640Z,4.40
2018-09-14T16:29:11.015Z,5.40
2018-09-14T16:31:40.123Z,4.80
2018-09-14T16:34:09.108Z,5.10
2018-09-14T16:36:38.290Z,4.10
2018-09-14T16:39:09.259Z,4.80
2018-09-14T16:41:38.627Z,5.00
2018-09-14T16:44:08.010Z,4.13
2018-09-14T16:46:37.630Z,4.57
2018-09-14T16:49:07.255Z,4.53
2018-09-14T16:51:36.371Z,4.70
2018-09-14T16:54:05.398Z,3.90
2018-09-14T16:56:34.556Z,4.70
2018-09-14T16:59:03.571Z,3.63
2018-09-14T17:01:32.793Z,4.13
2018-09-14T17:04:02.833Z,3.60
2018-09-14T17:06:36.396Z,4.30
2018-09-14T17:09:08.626Z,3.60
2018-09-14T17:11:41.642Z,3.70
2018-09-14T17:14:10.896Z,3.80
2018-09-14T17:16:39.996Z,3.20
2018-09-14T17:19:09.081Z,3.27
2018-09-14T17:21:38.216Z,2.83
2018-09-14T17:24:07.299Z,3.07
2018-09-14T17:26:36.986Z,3.50
2018-09-14T17:29:05.967Z,6.80
2018-09-14T17:31:35.278Z,4.40
2018-09-14T17:34:05.577Z,4.70
2018-09-14T17:36:35.175Z,3.87
2018-09-14T17:39:07.554Z,2.90
2018-09-14T17:41:37.616Z,3.10
2018-09-14T17:44:06.929Z,3.07
2018-09-14T17:46:36.030Z,3.57
2018-09-14T17:49:05.276Z,3.60
2018-09-14T17:51:34.362Z,3.67
2018-09-14T17:54:03.444Z,3.70
2018-09-14T17:56:32.539Z,3.33
2018-09-14T17:59:01.785Z,3.20
2018-09-14T18:01:30.858Z,3.20
2018-09-14T18:04:00.081Z,3.90
2018-09-14T18:06:29.323Z,3.80
2018-09-14T18:08:58.392Z,4.33
2018-09-14T18:11:27.408Z,3.30
2018-09-14T18:13:57.520Z,3.40
2018-09-14T18:16:26.790Z,4.27
2018-09-14T18:18:55.915Z,3.30
2018-09-14T18:21:24.958Z,3.03
2018-09-14T18:23:56.708Z,4.90
2018-09-14T18:26:25.913Z,4.20
2018-09-14T18:28:55.263Z,2.70
2018-09-14T18:31:24.411Z,4.00
2018-09-14T18:33:53.639Z,3.60
2018-09-14T18:36:22.867Z,2.53
2018-09-14T18:38:57.590Z,3.23
2018-09-14T18:41:28.245Z,2.90
2018-09-14T18:43:57.346Z,3.60
2018-09-14T18:46:26.717Z,3.07
2018-09-14T18:48:55.788Z,2.90
2018-09-14T18:51:24.813Z,3.17
2018-09-14T18:53:53.989Z,3.17
2018-09-14T18:56:23.183Z,3.50
2018-09-14T18:58:52.377Z,3.63
2018-09-14T19:01:21.529Z,3.10
2018-09-14T19:03:50.630Z,3.30
2018-09-14T19:06:21.444Z,2.97
2018-09-14T19:08:53.801Z,3.00
2018-09-14T19:11:23.408Z,3.73
2018-09-14T19:13:52.630Z,3.40
2018-09-14T19:16:21.896Z,3.00
2018-09-14T19:18:51.032Z,3.17
2018-09-14T19:21:20.125Z,2.50
2018-09-14T19:23:49.438Z,3.10
2018-09-14T19:26:18.524Z,2.50
2018-09-14T19:28:47.764Z,2.70
2018-09-14T19:31:16.840Z,3.00
2018-09-14T19:33:46.113Z,3.07
2018-09-14T19:36:16.846Z,3.20
2018-09-14T19:38:46.095Z,3.00
2018-09-14T19:41:16.625Z,2.80
2018-09-14T19:43:46.067Z,3.00
2018-09-14T19:46:15.122Z,3.13
2018-09-14T19:48:45.821Z,3.20
2018-09-14T19:51:14.959Z,3.27
2018-09-14T19:53:44.148Z,3.60
2018-09-14T19:56:13.403Z,3.90
2018-09-14T19:58:43.777Z,3.27
2018-09-14T21:44:45.590Z,4.83
2018-09-14T21:47:16.216Z,5.43
2018-09-14T21:49:45.679Z,5.10
2018-09-14T21:52:16.015Z,4.93
2018-09-14T21:54:46.138Z,5.30
2018-09-14T21:57:15.172Z,4.93
2018-09-14T21:59:44.552Z,4.50
2018-09-14T22:02:15.978Z,3.80
2018-09-14T22:04:44.999Z,3.90
2018-09-14T22:07:14.112Z,4.60
2018-09-14T22:09:43.309Z,4.40
2018-09-14T22:12:12.459Z,5.20
2018-09-14T22:14:41.678Z,4.50
2018-09-14T22:17:10.832Z,4.20
2018-09-14T22:19:40.204Z,4.83
2018-09-14T22:22:09.372Z,4.87
2018-09-14T22:24:38.628Z,5.20
2018-09-14T22:27:07.779Z,5.67
2018-09-14T22:29:36.827Z,5.27
2018-09-14T22:32:06.168Z,4.33
2018-09-14T22:34:35.350Z,5.90
2018-09-14T22:37:05.335Z,5.47
2018-09-14T22:39:35.253Z,4.67
2018-09-14T22:42:04.318Z,5.37
2018-09-14T22:44:33.419Z,5.50
2018-09-14T22:47:02.502Z,5.93
2018-09-14T22:50:06.844Z,4.77
2018-09-14T22:52:47.067Z,4.87
2018-09-14T22:55:16.310Z,6.03
2018-09-14T22:57:45.391Z,6.50
2018-09-14T23:01:17.637Z,5.80
2018-09-14T23:03:52.818Z,6.23
2018-09-14T23:06:25.936Z,6.50
2018-09-14T23:08:55.113Z,5.97
2018-09-14T23:11:41.555Z,6.90
2018-09-14T23:14:15.538Z,5.73
2018-09-14T23:16:44.749Z,5.73
2018-09-14T23:19:19.254Z,5.50
2018-09-14T23:21:50.721Z,6.30
2018-09-14T23:24:31.485Z,5.40
2018-09-14T23:27:00.798Z,5.70
2018-09-14T23:29:30.155Z,7.10
2018-09-14T23:31:59.427Z,6.00
2018-09-14T23:34:36.843Z,6.10
2018-09-14T23:37:06.803Z,7.07
2018-09-14T23:39:36.754Z,6.80
2018-09-14T23:42:07.167Z,6.80
2018-09-14T23:44:36.485Z,7.33
2018-09-14T23:47:08.110Z,6.90
2018-09-14T23:49:37.272Z,6.20
2018-09-14T23:52:06.389Z,6.00
2018-09-14T23:54:35.581Z,6.53
2018-09-14T23:57:04.771Z,6.17
2018-09-14T23:59:34.315Z,6.50
